Time;durP1;ratioP1;P1;durP2;ratioP2;P2;SDS_P1;SDS_P2;PMS_P1;PMS_P2;Temp;Humidity;BMP_temperature;BMP_pressure;BME280_temperature;BME280_humidity;BME280_pressure;Samples;Min_cycle;Max_cycle;Signal;HPM_P1;HPM_P2
2023/05/30 00:00:26;;;;;;;1.38;1.10;;;19.90;35.40;;;;;;5091773;28;20160;-79
2023/05/30 00:02:52;;;;;;;1.48;1.00;;;19.90;35.50;;;;;;5107946;28;20157;-80
2023/05/30 00:05:17;;;;;;;1.45;0.95;;;19.80;35.50;;;;;;5091028;28;20591;-79
2023/05/30 00:07:45;;;;;;;2.72;1.10;;;19.90;35.60;;;;;;5108031;28;20153;-79
2023/05/30 00:10:14;;;;;;;1.13;1.02;;;19.90;35.60;;;;;;5108125;28;20161;-79
2023/05/30 00:12:41;;;;;;;2.33;1.10;;;19.80;35.50;;;;;;5091204;28;20180;-79
2023/05/30 00:15:07;;;;;;;1.30;1.10;;;19.90;35.60;;;;;;5107130;28;20168;-79
2023/05/30 00:17:35;;;;;;;2.75;1.20;;;19.80;35.60;;;;;;5107529;28;20148;-79
2023/05/30 00:20:03;;;;;;;0.93;0.88;;;19.80;35.60;;;;;;5107947;28;20241;-80
2023/05/30 00:22:29;;;;;;;1.92;0.90;;;19.80;35.60;;;;;;5107354;28;20164;-79
2023/05/30 00:24:56;;;;;;;2.17;1.10;;;19.80;35.60;;;;;;5108573;28;20149;-79
2023/05/30 00:27:23;;;;;;;1.48;1.00;;;19.80;35.60;;;;;;5107558;28;20149;-80
2023/05/30 00:29:48;;;;;;;1.63;0.80;;;19.80;35.60;;;;;;5085804;28;20232;-80
2023/05/30 00:32:15;;;;;;;2.50;1.02;;;19.80;35.60;;;;;;5074230;28;20173;-79
2023/05/30 00:34:41;;;;;;;1.30;1.10;;;19.80;35.60;;;;;;5073535;28;20188;-79
2023/05/30 00:37:08;;;;;;;1.33;1.00;;;19.80;35.60;;;;;;5091238;28;20231;-79
2023/05/30 00:39:37;;;;;;;1.70;0.90;;;19.80;35.70;;;;;;5073824;28;20228;-79
2023/05/30 00:42:04;;;;;;;1.20;1.00;;;19.80;35.70;;;;;;5090606;28;20145;-79
2023/05/30 00:44:30;;;;;;;1.58;0.90;;;19.80;35.60;;;;;;5090546;28;20643;-79
2023/05/30 00:46:56;;;;;;;1.30;1.08;;;19.80;35.70;;;;;;5090397;28;20157;-79
2023/05/30 00:49:24;;;;;;;2.47;1.00;;;19.80;35.70;;;;;;5074026;28;20538;-80
2023/05/30 00:51:51;;;;;;;1.90;1.00;;;19.80;35.70;;;;;;5074297;28;20248;-79
2023/05/30 00:54:17;;;;;;;1.02;0.90;;;19.80;35.80;;;;;;5089884;28;20244;-79
2023/05/30 00:56:47;;;;;;;1.05;0.90;;;19.80;35.70;;;;;;5090380;28;20493;-80
2023/05/30 00:59:13;;;;;;;1.50;1.20;;;19.80;35.70;;;;;;5074308;28;20161;-79
2023/05/30 01:01:38;;;;;;;1.15;1.05;;;19.80;35.50;;;;;;5089840;28;20307;-80
2023/05/30 01:04:04;;;;;;;1.77;1.10;;;19.80;35.40;;;;;;5072554;28;20614;-79
2023/05/30 01:06:46;;;;;;;1.60;1.10;;;19.80;35.20;;;;;;5090166;28;20164;-79
2023/05/30 01:09:12;;;;;;;1.58;1.13;;;19.80;35.10;;;;;;5089963;28;20156;-79
2023/05/30 01:12:20;;;;;;;2.42;0.95;;;19.80;35.10;;;;;;5073868;28;20622;-79
2023/05/30 01:14:59;;;;;;;1.10;1.00;;;19.80;35.10;;;;;;5092912;28;20200;-79
2023/05/30 01:17:33;;;;;;;1.00;0.88;;;19.70;35.10;;;;;;5074185;28;20160;-79
2023/05/30 01:20:07;;;;;;;1.45;0.80;;;19.80;35.30;;;;;;5090253;28;20177;-79
2023/05/30 01:23:03;;;;;;;1.10;1.00;;;19.80;35.10;;;;;;5072858;28;20164;-79
2023/05/30 01:26:09;;;;;;;0.88;0.80;;;19.80;35.20;;;;;;5076899;28;20169;-80
2023/05/30 01:28:38;;;;;;;1.23;0.90;;;19.80;35.10;;;;;;5094793;28;20228;-79
2023/05/30 01:31:09;;;;;;;1.23;1.00;;;19.80;35.20;;;;;;5089667;28;20291;-80
2023/05/30 01:33:35;;;;;;;1.05;0.95;;;19.80;35.20;;;;;;5088509;28;20184;-79
2023/05/30 01:36:00;;;;;;;1.45;1.10;;;19.80;35.10;;;;;;5089951;28;20153;-79
2023/05/30 01:38:27;;;;;;;0.90;0.80;;;19.80;35.20;;;;;;5089234;28;20195;-79
2023/05/30 01:40:55;;;;;;;1.15;1.05;;;19.80;35.10;;;;;;5073258;28;20169;-79
2023/05/30 01:43:42;;;;;;;1.67;0.98;;;19.80;35.10;;;;;;5072323;28;20233;-79
2023/05/30 01:46:32;;;;;;;1.02;0.93;;;19.80;35.20;;;;;;5090141;28;20220;-79
2023/05/30 01:49:18;;;;;;;1.52;0.80;;;19.80;35.30;;;;;;5089717;28;20232;-79
2023/05/30 01:52:07;;;;;;;1.23;0.82;;;19.80;35.20;;;;;;5074596;28;20169;-79
2023/05/30 01:54:33;;;;;;;0.70;0.70;;;19.80;35.20;;;;;;5106595;28;20192;-78
2023/05/30 01:57:06;;;;;;;1.00;0.85;;;19.80;35.30;;;;;;5072264;28;20221;-79
2023/05/30 01:59:32;;;;;;;0.98;0.90;;;19.80;35.30;;;;;;5090218;28;20155;-79
2023/05/30 02:01:57;;;;;;;1.40;1.08;;;19.80;35.30;;;;;;5071192;28;20240;-79
2023/05/30 02:04:25;;;;;;;1.00;0.75;;;19.80;35.40;;;;;;5089336;28;20161;-79
2023/05/30 02:06:51;;;;;;;1.35;0.88;;;19.80;35.30;;;;;;5088620;28;20168;-79
2023/05/30 02:09:19;;;;;;;1.27;1.00;;;19.70;35.40;;;;;;5072574;28;20172;-79
2023/05/30 02:11:46;;;;;;;1.60;1.10;;;19.80;35.40;;;;;;5071933;28;20172;-78
2023/05/30 02:14:11;;;;;;;1.13;1.00;;;19.80;35.40;;;;;;5089272;28;20276;-79
2023/05/30 02:16:41;;;;;;;2.55;1.05;;;19.70;36.10;;;;;;5088487;28;20168;-79
2023/05/30 02:19:06;;;;;;;2.22;1.10;;;19.70;35.30;;;;;;5089059;28;20161;-79
2023/05/30 02:21:37;;;;;;;1.08;0.98;;;19.80;35.50;;;;;;5088736;28;20162;-79
2023/05/30 02:24:03;;;;;;;1.42;0.80;;;19.70;35.40;;;;;;5088322;28;20172;-79
2023/05/30 02:26:30;;;;;;;1.05;0.93;;;19.70;35.30;;;;;;5071170;28;20660;-79
2023/05/30 02:28:56;;;;;;;0.75;0.75;;;19.70;35.40;;;;;;5071603;28;20172;-79
2023/05/30 02:31:22;;;;;;;1.40;0.90;;;19.70;35.40;;;;;;5088924;28;20316;-80
2023/05/30 02:33:50;;;;;;;1.85;1.00;;;19.70;35.40;;;;;;5088594;28;20213;-79
2023/05/30 02:36:16;;;;;;;1.15;0.82;;;19.70;35.40;;;;;;5088546;28;20216;-79
2023/05/30 02:38:42;;;;;;;1.20;0.90;;;19.80;35.50;;;;;;5089037;28;20156;-79
2023/05/30 02:41:07;;;;;;;1.05;1.02;;;19.70;35.50;;;;;;5072157;28;20176;-79
2023/05/30 02:43:33;;;;;;;1.20;0.93;;;19.70;35.40;;;;;;5071543;28;20164;-79
2023/05/30 02:46:01;;;;;;;1.13;1.00;;;19.70;36.10;;;;;;5091262;28;20190;-79
2023/05/30 02:48:26;;;;;;;1.38;1.20;;;19.70;35.50;;;;;;5092810;28;20197;-79
2023/05/30 02:50:52;;;;;;;1.10;1.00;;;19.70;35.50;;;;;;5093002;28;20152;-79
2023/05/30 02:53:18;;;;;;;1.25;1.15;;;19.70;35.50;;;;;;5076006;28;20234;-79
2023/05/30 02:55:44;;;;;;;1.83;1.08;;;19.70;35.50;;;;;;5076272;28;20218;-79
2023/05/30 02:58:11;;;;;;;1.23;1.10;;;19.70;35.50;;;;;;5076053;28;20168;-79
2023/05/30 03:00:40;;;;;;;1.23;0.90;;;19.70;35.50;;;;;;5092537;28;20236;-79
2023/05/30 03:03:08;;;;;;;1.30;1.10;;;19.70;35.60;;;;;;5092814;28;20178;-79
2023/05/30 03:05:35;;;;;;;1.30;1.00;;;19.80;35.60;;;;;;5075657;28;20175;-79
2023/05/30 03:08:03;;;;;;;1.25;1.02;;;19.70;35.60;;;;;;5075513;28;20165;-79
2023/05/30 03:10:30;;;;;;;1.33;0.90;;;19.70;35.60;;;;;;5110152;28;20165;-79
2023/05/30 03:12:56;;;;;;;1.13;0.88;;;19.70;35.60;;;;;;5091962;28;20201;-79
2023/05/30 03:15:22;;;;;;;1.10;1.00;;;19.70;35.70;;;;;;5092700;28;20160;-79
2023/05/30 03:17:49;;;;;;;1.55;0.95;;;19.70;35.70;;;;;;5092330;28;20661;-80
2023/05/30 03:20:15;;;;;;;1.05;0.93;;;19.70;35.70;;;;;;5109787;28;20156;-79
2023/05/30 03:22:41;;;;;;;1.00;0.90;;;19.70;35.70;;;;;;5092175;28;20145;-79
2023/05/30 03:25:08;;;;;;;1.00;0.82;;;19.70;35.70;;;;;;5075004;28;20192;-79
2023/05/30 03:27:35;;;;;;;1.02;0.82;;;19.70;35.70;;;;;;5074839;28;20639;-79
2023/05/30 03:30:02;;;;;;;1.00;0.90;;;19.70;35.70;;;;;;5075174;28;20223;-79
2023/05/30 03:32:28;;;;;;;1.13;0.90;;;19.80;36.40;;;;;;5091769;28;20165;-79
2023/05/30 03:34:54;;;;;;;1.10;0.88;;;19.70;35.70;;;;;;5091565;28;20215;-78
2023/05/30 03:37:22;;;;;;;1.10;1.00;;;19.70;35.70;;;;;;5074997;28;20627;-80
2023/05/30 03:39:48;;;;;;;1.77;0.93;;;19.80;35.80;;;;;;5075540;28;20172;-79
2023/05/30 03:42:15;;;;;;;1.13;0.90;;;19.80;35.70;;;;;;5091468;28;20160;-79
2023/05/30 03:44:41;;;;;;;1.10;0.93;;;19.80;35.70;;;;;;5092181;28;20233;-79
2023/05/30 03:47:07;;;;;;;1.27;0.90;;;19.80;35.60;;;;;;5074605;28;20176;-79
2023/05/30 03:49:33;;;;;;;1.30;0.90;;;19.80;35.70;;;;;;5091257;28;20179;-79
2023/05/30 03:51:59;;;;;;;1.33;1.00;;;19.80;35.70;;;;;;5091311;28;20181;-79
2023/05/30 03:54:25;;;;;;;1.08;0.90;;;19.80;35.70;;;;;;5091099;28;20200;-79
2023/05/30 03:56:51;;;;;;;2.10;1.40;;;19.90;35.70;;;;;;5073576;28;20165;-79
2023/05/30 03:59:17;;;;;;;0.80;0.80;;;19.90;35.70;;;;;;5074791;28;20160;-79
2023/05/30 04:01:43;;;;;;;1.95;1.15;;;19.90;35.70;;;;;;5091231;28;20185;-79
2023/05/30 04:04:10;;;;;;;1.17;0.82;;;19.90;35.70;;;;;;5091046;28;20176;-79
2023/05/30 04:06:39;;;;;;;1.48;1.08;;;19.90;35.70;;;;;;5091346;28;20179;-79
2023/05/30 04:09:06;;;;;;;1.17;0.98;;;19.90;35.60;;;;;;5074736;28;20650;-79
2023/05/30 04:11:32;;;;;;;1.38;1.00;;;19.90;35.60;;;;;;5091815;28;20176;-79
2023/05/30 04:13:58;;;;;;;2.03;1.00;;;20.00;35.60;;;;;;5091623;28;20177;-79
2023/05/30 04:16:25;;;;;;;1.17;1.00;;;20.00;35.50;;;;;;5091273;28;20187;-79
2023/05/30 04:18:51;;;;;;;1.25;1.00;;;20.00;35.60;;;;;;5074852;28;20169;-79
2023/05/30 04:21:17;;;;;;;1.15;1.02;;;20.00;35.60;;;;;;5074269;28;20172;-79
2023/05/30 04:23:44;;;;;;;1.30;0.80;;;20.00;35.50;;;;;;5074603;28;20534;-79
2023/05/30 04:26:10;;;;;;;1.20;1.00;;;20.10;35.40;;;;;;5091010;28;20169;-79
2023/05/30 04:28:38;;;;;;;1.60;1.00;;;20.10;35.40;;;;;;5091069;28;20172;-79
2023/05/30 04:31:05;;;;;;;1.70;0.90;;;20.10;35.30;;;;;;5107826;28;20224;-79
2023/05/30 04:33:35;;;;;;;1.33;0.90;;;20.10;35.40;;;;;;5110329;28;20234;-79
2023/05/30 04:36:04;;;;;;;2.17;0.90;;;20.10;35.40;;;;;;5111390;28;20167;-79
2023/05/30 04:38:34;;;;;;;1.10;0.98;;;20.10;35.40;;;;;;5111580;28;20162;-79
2023/05/30 04:41:02;;;;;;;1.38;1.00;;;20.10;35.30;;;;;;5110799;28;20145;-79
2023/05/30 04:43:36;;;;;;;0.98;0.85;;;20.10;35.30;;;;;;5110805;28;20182;-79
2023/05/30 04:46:04;;;;;;;0.90;0.90;;;20.10;35.30;;;;;;5128852;28;20156;-79
2023/05/30 04:48:30;;;;;;;0.85;0.82;;;20.10;35.30;;;;;;5111080;28;20208;-79
2023/05/30 04:50:59;;;;;;;1.33;1.00;;;20.10;35.30;;;;;;5122955;27;20178;-79
2023/05/30 04:53:25;;;;;;;1.15;0.93;;;20.20;35.30;;;;;;5113966;27;20211;-79
2023/05/30 04:55:50;;;;;;;0.82;0.82;;;20.10;35.30;;;;;;5113952;27;20661;-80
2023/05/30 04:58:17;;;;;;;1.15;0.80;;;20.20;35.40;;;;;;5113870;27;20179;-80
2023/05/30 05:00:43;;;;;;;2.38;1.02;;;20.20;35.30;;;;;;5113374;27;20606;-80
2023/05/30 05:03:15;;;;;;;1.30;0.98;;;20.20;35.30;;;;;;5113277;27;20171;-80
2023/05/30 05:05:41;;;;;;;1.42;1.00;;;20.20;35.30;;;;;;5113003;27;20206;-79
2023/05/30 05:08:07;;;;;;;1.10;1.00;;;20.20;35.40;;;;;;5112938;27;20164;-80
2023/05/30 05:10:35;;;;;;;0.93;0.82;;;20.20;35.30;;;;;;5120618;27;20167;-82
2023/05/30 05:13:01;;;;;;;1.40;0.90;;;20.20;35.20;;;;;;5117452;27;20188;-82
2023/05/30 05:15:26;;;;;;;1.33;1.00;;;20.30;35.20;;;;;;5082035;28;20618;-82
2023/05/30 05:17:52;;;;;;;0.82;0.80;;;20.30;35.10;;;;;;5098906;28;20160;-81
2023/05/30 05:20:17;;;;;;;1.20;0.90;;;20.30;35.20;;;;;;5118001;28;20610;-83
2023/05/30 05:22:43;;;;;;;0.90;0.90;;;20.30;35.20;;;;;;5128434;27;20174;-82
2023/05/30 05:25:10;;;;;;;0.90;0.90;;;20.20;35.10;;;;;;5120495;27;20167;-83
2023/05/30 05:27:37;;;;;;;0.80;0.80;;;20.30;35.40;;;;;;5139518;27;20144;-83
2023/05/30 05:30:03;;;;;;;1.30;1.00;;;20.30;35.20;;;;;;5103394;27;20244;-82
2023/05/30 05:32:36;;;;;;;1.67;1.00;;;20.40;35.50;;;;;;5120626;27;20167;-82
2023/05/30 05:35:02;;;;;;;2.58;1.25;;;20.40;35.60;;;;;;5120756;27;20282;-81
2023/05/30 05:37:28;;;;;;;1.65;1.00;;;20.40;36.60;;;;;;5120401;27;20148;-83
2023/05/30 05:39:53;;;;;;;1.13;0.95;;;20.40;36.70;;;;;;5103357;28;20568;-83
2023/05/30 05:42:19;;;;;;;1.50;1.08;;;20.40;36.60;;;;;;5102620;28;20655;-83
2023/05/30 05:44:45;;;;;;;1.67;1.00;;;20.50;37.00;;;;;;5089069;27;20560;-83
2023/05/30 05:47:10;;;;;;;1.85;1.20;;;20.40;37.10;;;;;;5118242;27;20731;-80
2023/05/30 05:49:36;;;;;;;1.38;0.85;;;20.50;36.80;;;;;;5102744;27;20178;-82
2023/05/30 05:52:03;;;;;;;1.17;0.80;;;20.50;36.20;;;;;;5119588;27;20164;-82
2023/05/30 05:54:29;;;;;;;1.63;1.00;;;20.40;36.20;;;;;;5103147;27;20199;-81
2023/05/30 05:56:57;;;;;;;0.82;0.82;;;20.50;36.60;;;;;;5090237;28;20159;-81
2023/05/30 05:59:24;;;;;;;3.28;0.98;;;20.50;36.20;;;;;;5088176;28;20167;-81
2023/05/30 06:01:55;;;;;;;1.70;1.00;;;20.50;36.40;;;;;;5124367;28;20148;-80
2023/05/30 06:04:21;;;;;;;1.75;0.88;;;20.50;36.20;;;;;;5107939;28;20156;-80
2023/05/30 06:06:48;;;;;;;1.10;0.90;;;20.50;35.90;;;;;;5126811;28;20178;-80
2023/05/30 06:09:15;;;;;;;1.20;1.00;;;20.50;35.80;;;;;;5108855;28;20152;-80
2023/05/30 06:11:43;;;;;;;1.58;0.90;;;20.50;35.80;;;;;;5091424;28;20199;-80
2023/05/30 06:14:09;;;;;;;2.15;0.70;;;20.50;35.70;;;;;;5091905;28;20191;-80
2023/05/30 06:16:37;;;;;;;1.88;0.90;;;20.50;35.90;;;;;;5092065;28;20202;-80
2023/05/30 06:19:04;;;;;;;1.63;1.00;;;20.50;35.80;;;;;;5091625;28;20188;-80
2023/05/30 06:21:30;;;;;;;1.73;1.00;;;20.50;35.70;;;;;;5092151;28;20258;-80
2023/05/30 06:23:57;;;;;;;1.13;1.02;;;20.60;35.70;;;;;;5109108;28;20148;-80
2023/05/30 06:26:26;;;;;;;1.25;1.00;;;20.60;35.50;;;;;;5108933;28;20144;-81
2023/05/30 06:28:52;;;;;;;1.08;0.85;;;20.60;35.70;;;;;;5107910;28;20152;-80
2023/05/30 06:31:17;;;;;;;1.40;1.00;;;20.50;35.50;;;;;;5124456;28;20219;-82
2023/05/30 06:33:43;;;;;;;1.25;1.02;;;20.60;35.70;;;;;;5120701;28;20192;-81
2023/05/30 06:36:11;;;;;;;2.10;1.00;;;20.60;35.50;;;;;;5118998;28;20196;-81
2023/05/30 06:38:37;;;;;;;1.25;0.80;;;20.60;35.70;;;;;;5088095;28;20717;-80
2023/05/30 06:41:02;;;;;;;1.10;1.00;;;20.60;35.80;;;;;;5070350;28;20153;-80
2023/05/30 06:43:28;;;;;;;1.63;1.13;;;20.50;35.50;;;;;;5110905;28;20159;-81
2023/05/30 06:45:54;;;;;;;1.35;1.10;;;20.30;35.80;;;;;;5121573;28;20172;-81
2023/05/30 06:48:20;;;;;;;1.20;0.98;;;20.20;36.00;;;;;;5119151;28;20168;-80
2023/05/30 06:50:47;;;;;;;1.40;1.00;;;20.10;36.30;;;;;;5123163;28;20164;-80
2023/05/30 06:53:13;;;;;;;1.65;1.08;;;20.00;36.70;;;;;;5124147;28;20180;-80
2023/05/30 06:55:38;;;;;;;1.33;0.90;;;20.00;36.50;;;;;;5124304;28;20243;-80
2023/05/30 06:58:05;;;;;;;1.42;0.90;;;19.90;36.50;;;;;;5124073;28;20531;-81
2023/05/30 07:00:30;;;;;;;1.10;0.77;;;20.00;36.70;;;;;;5124102;28;20235;-80
2023/05/30 07:02:56;;;;;;;1.40;0.95;;;20.00;36.50;;;;;;5089267;28;20177;-80
2023/05/30 07:05:22;;;;;;;1.20;0.90;;;20.00;36.60;;;;;;5123572;28;20169;-80
2023/05/30 07:07:47;;;;;;;1.40;1.10;;;20.00;36.70;;;;;;5089333;28;20167;-81
2023/05/30 07:10:13;;;;;;;1.05;0.93;;;19.90;36.70;;;;;;5124474;28;20152;-82
2023/05/30 07:12:39;;;;;;;2.08;0.90;;;19.90;36.70;;;;;;5116625;28;20164;-83
2023/05/30 07:15:08;;;;;;;1.60;1.17;;;19.90;36.70;;;;;;5096824;28;20198;-81
2023/05/30 07:17:33;;;;;;;1.42;1.00;;;19.90;36.80;;;;;;5098148;28;20149;-81
2023/05/30 07:20:02;;;;;;;1.70;0.80;;;19.90;36.80;;;;;;5103722;28;20183;-81
2023/05/30 07:22:28;;;;;;;1.98;0.90;;;19.90;36.90;;;;;;5087215;28;20253;-80
2023/05/30 07:24:54;;;;;;;1.77;0.88;;;19.90;36.90;;;;;;5084919;28;20161;-80
2023/05/30 07:27:19;;;;;;;0.90;0.75;;;19.90;36.90;;;;;;5079956;28;20190;-81
2023/05/30 07:29:45;;;;;;;1.23;0.80;;;19.90;36.90;;;;;;5096776;28;20702;-81
2023/05/30 07:32:12;;;;;;;1.75;0.82;;;19.90;36.80;;;;;;5068337;28;20168;-81
2023/05/30 07:34:40;;;;;;;1.75;0.93;;;19.90;36.70;;;;;;5050092;28;20238;-81
2023/05/30 07:37:06;;;;;;;1.20;0.85;;;20.00;36.80;;;;;;5105477;28;20145;-83
2023/05/30 07:39:33;;;;;;;0.93;0.75;;;19.90;36.80;;;;;;5087831;28;20155;-81
2023/05/30 07:41:58;;;;;;;1.23;0.80;;;19.90;37.10;;;;;;5087042;28;20161;-82
2023/05/30 07:44:24;;;;;;;1.65;0.80;;;19.90;36.90;;;;;;5071278;28;20233;-80
2023/05/30 07:46:51;;;;;;;1.77;0.85;;;19.90;36.80;;;;;;5070102;28;20175;-82
2023/05/30 07:49:16;;;;;;;1.50;0.80;;;19.90;37.10;;;;;;5084684;28;20164;-81
2023/05/30 07:51:44;;;;;;;0.93;0.80;;;19.90;37.00;;;;;;5104541;28;20191;-81
2023/05/30 07:54:09;;;;;;;0.65;0.60;;;20.00;36.90;;;;;;5060013;28;20196;-82
2023/05/30 07:56:36;;;;;;;1.50;0.80;;;20.00;36.70;;;;;;5085946;28;20161;-81
2023/05/30 07:59:02;;;;;;;0.70;0.70;;;20.10;36.70;;;;;;5069871;28;20160;-80
2023/05/30 08:01:27;;;;;;;1.08;0.98;;;20.10;36.70;;;;;;5109192;28;20163;-81
2023/05/30 08:03:54;;;;;;;1.65;0.85;;;20.00;36.70;;;;;;5090085;28;20179;-81
2023/05/30 08:06:20;;;;;;;1.10;0.90;;;19.90;36.70;;;;;;5092350;28;20171;-81
2023/05/30 08:08:46;;;;;;;1.10;0.80;;;19.80;36.90;;;;;;5126817;28;20619;-80
2023/05/30 08:11:15;;;;;;;1.98;0.90;;;19.80;37.20;;;;;;5091848;28;20189;-82
2023/05/30 08:13:43;;;;;;;1.00;0.77;;;19.70;37.20;;;;;;5126222;28;20184;-80
2023/05/30 08:16:11;;;;;;;1.02;0.68;;;19.70;37.30;;;;;;5090046;28;20155;-81
2023/05/30 08:18:37;;;;;;;3.42;1.00;;;19.70;37.50;;;;;;5090753;28;20159;-82
2023/05/30 08:21:03;;;;;;;1.45;0.90;;;19.70;37.40;;;;;;5105057;28;20148;-81
2023/05/30 08:23:29;;;;;;;1.60;0.82;;;19.70;37.30;;;;;;5090562;28;20610;-81
2023/05/30 08:25:56;;;;;;;0.82;0.80;;;19.80;37.40;;;;;;5113005;28;20161;-81
2023/05/30 08:28:21;;;;;;;1.50;0.95;;;19.80;37.30;;;;;;5088621;28;20551;-80
2023/05/30 08:30:48;;;;;;;1.80;0.90;;;19.80;37.50;;;;;;5106440;28;20233;-81
2023/05/30 08:33:16;;;;;;;1.05;0.90;;;19.80;37.40;;;;;;5106860;28;20191;-81
2023/05/30 08:35:41;;;;;;;2.50;0.80;;;19.80;37.50;;;;;;5089606;28;20622;-80
2023/05/30 08:38:08;;;;;;;1.08;0.80;;;19.80;37.70;;;;;;5090315;28;20193;-82
2023/05/30 08:40:34;;;;;;;3.08;0.95;;;19.90;37.70;;;;;;5106840;28;20292;-82
2023/05/30 08:43:00;;;;;;;1.77;1.13;;;19.90;37.80;;;;;;5088211;28;20174;-80
2023/05/30 08:45:27;;;;;;;1.90;1.10;;;19.90;37.60;;;;;;5106016;28;20156;-80
2023/05/30 08:47:55;;;;;;;2.20;0.90;;;19.90;37.60;;;;;;5090684;28;20152;-81
2023/05/30 08:50:21;;;;;;;1.17;0.93;;;19.90;37.70;;;;;;5088510;28;20159;-81
2023/05/30 08:52:48;;;;;;;2.75;0.90;;;19.90;37.50;;;;;;5121166;28;20153;-81
2023/05/30 08:55:14;;;;;;;3.88;0.93;;;20.00;37.60;;;;;;5104720;28;20169;-80
2023/05/30 08:58:04;;;;;;;1.73;0.93;;;20.10;37.50;;;;;;5087290;28;20152;-82
2023/05/30 09:00:31;;;;;;;2.35;0.85;;;20.10;37.60;;;;;;5107440;28;20156;-80
2023/05/30 09:02:58;;;;;;;3.53;0.80;;;20.10;37.40;;;;;;5108171;28;20163;-80
2023/05/30 09:05:24;;;;;;;2.13;1.00;;;20.00;37.50;;;;;;5109976;28;20157;-80
2023/05/30 09:07:50;;;;;;;1.50;0.82;;;20.10;37.60;;;;;;5107829;28;20160;-81
2023/05/30 09:10:15;;;;;;;2.80;1.00;;;20.10;37.60;;;;;;5108620;28;20152;-81
2023/05/30 09:12:42;;;;;;;2.38;1.00;;;20.00;37.90;;;;;;5108360;28;20156;-81
2023/05/30 09:15:07;;;;;;;1.65;0.93;;;20.00;38.90;;;;;;5109240;28;20187;-80
2023/05/30 09:17:36;;;;;;;2.67;0.82;;;19.90;38.40;;;;;;5126055;28;20180;-81
2023/05/30 09:20:02;;;;;;;1.10;0.70;;;19.90;38.50;;;;;;5073686;28;20598;-80
2023/05/30 09:22:29;;;;;;;2.25;0.70;;;19.90;38.80;;;;;;5074778;28;20164;-80
2023/05/30 09:24:58;;;;;;;2.50;0.90;;;19.90;38.80;;;;;;5091729;28;20152;-82
2023/05/30 09:27:25;;;;;;;5.47;1.00;;;19.90;38.90;;;;;;5090233;28;20250;-81
2023/05/30 09:29:50;;;;;;;1.58;0.77;;;20.00;38.90;;;;;;5096517;28;20224;-80
2023/05/30 09:32:16;;;;;;;6.57;1.05;;;20.00;38.80;;;;;;5092899;28;20246;-80
2023/05/30 09:34:57;;;;;;;2.10;0.85;;;19.90;38.80;;;;;;5092891;28;20195;-80
2023/05/30 09:37:25;;;;;;;2.65;0.90;;;20.00;38.80;;;;;;5108148;28;20179;-81
2023/05/30 09:40:06;;;;;;;3.28;0.90;;;20.10;38.70;;;;;;5087756;28;20152;-80
2023/05/30 09:42:40;;;;;;;2.10;0.88;;;20.10;38.60;;;;;;5086214;28;20275;-80
2023/05/30 09:45:08;;;;;;;2.83;0.90;;;20.10;38.50;;;;;;5104851;28;20152;-80
2023/05/30 09:47:38;;;;;;;3.30;1.17;;;20.10;38.50;;;;;;5104784;28;20159;-80
2023/05/30 09:50:06;;;;;;;3.28;1.10;;;20.20;38.50;;;;;;5105158;28;20152;-81
2023/05/30 09:52:32;;;;;;;2.03;1.00;;;20.20;38.50;;;;;;5104312;28;20172;-81
2023/05/30 09:54:59;;;;;;;2.67;1.15;;;20.10;38.50;;;;;;5123787;28;20202;-80
2023/05/30 09:57:29;;;;;;;2.80;1.20;;;20.10;38.50;;;;;;5106570;28;20223;-80
2023/05/30 09:59:56;;;;;;;2.17;1.10;;;20.10;38.50;;;;;;5107842;28;20183;-80
2023/05/30 10:02:22;;;;;;;1.33;0.90;;;20.10;38.40;;;;;;5108455;28;20156;-80
2023/05/30 10:04:51;;;;;;;2.13;0.65;;;20.10;38.30;;;;;;5087994;28;20168;-82
2023/05/30 10:07:20;;;;;;;1.60;0.95;;;20.10;38.30;;;;;;5090982;28;20167;-80
2023/05/30 10:09:48;;;;;;;2.15;0.82;;;20.10;38.30;;;;;;5091387;28;20590;-80
2023/05/30 10:12:15;;;;;;;1.30;0.80;;;20.20;38.30;;;;;;5088712;28;20246;-82
2023/05/30 10:14:43;;;;;;;1.38;0.90;;;20.20;38.20;;;;;;5106183;28;20203;-80
2023/05/30 10:17:12;;;;;;;2.03;0.93;;;20.20;38.20;;;;;;5087526;28;20502;-81
2023/05/30 10:19:41;;;;;;;1.25;0.70;;;20.20;38.10;;;;;;5122056;28;20155;-82
2023/05/30 10:22:08;;;;;;;1.75;0.80;;;20.30;38.10;;;;;;5107513;28;20183;-80
2023/05/30 10:24:35;;;;;;;3.38;1.00;;;20.30;37.90;;;;;;5091578;28;20174;-81
2023/05/30 10:27:03;;;;;;;3.40;0.85;;;20.40;37.90;;;;;;5125490;28;20197;-81
2023/05/30 10:29:34;;;;;;;2.15;0.88;;;20.30;37.90;;;;;;5090881;28;20276;-82
2023/05/30 10:32:01;;;;;;;2.13;0.80;;;20.30;38.00;;;;;;5087519;28;20176;-84
2023/05/30 10:34:34;;;;;;;2.45;0.77;;;20.30;37.90;;;;;;5087795;28;20245;-80
2023/05/30 10:37:01;;;;;;;2.90;0.90;;;20.30;38.30;;;;;;5125429;28;20608;-80
2023/05/30 10:39:46;;;;;;;2.78;0.82;;;20.20;38.30;;;;;;5091992;28;20160;-80
2023/05/30 10:42:27;;;;;;;1.58;0.60;;;20.30;38.40;;;;;;5101280;28;20239;-81
2023/05/30 10:44:58;;;;;;;1.35;1.08;;;20.20;38.50;;;;;;5109275;28;20614;-81
2023/05/30 10:47:48;;;;;;;2.38;0.82;;;20.20;38.30;;;;;;5107848;28;20229;-80
2023/05/30 10:50:19;;;;;;;2.15;0.70;;;20.20;38.20;;;;;;5111732;28;20168;-80
2023/05/30 10:52:46;;;;;;;1.33;0.80;;;20.20;38.20;;;;;;5108088;28;20164;-79
2023/05/30 10:55:13;;;;;;;1.13;0.90;;;20.20;38.20;;;;;;5125476;28;20180;-80
2023/05/30 10:57:41;;;;;;;1.27;0.93;;;20.20;38.00;;;;;;5091207;28;20163;-80
2023/05/30 11:00:18;;;;;;;1.55;0.85;;;20.20;38.00;;;;;;5091377;28;20183;-82
2023/05/30 11:02:49;;;;;;;3.67;1.02;;;20.30;38.00;;;;;;5125033;28;20148;-81
2023/05/30 11:05:20;;;;;;;0.75;0.73;;;20.20;37.80;;;;;;5085220;28;20644;-84
2023/05/30 11:07:46;;;;;;;1.23;0.80;;;20.30;38.00;;;;;;5123268;28;20576;-83
2023/05/30 11:10:13;;;;;;;1.02;0.90;;;20.20;37.90;;;;;;5107056;28;20168;-82
2023/05/30 11:12:43;;;;;;;2.80;1.08;;;20.20;38.60;;;;;;5105173;28;20168;-82
2023/05/30 11:15:13;;;;;;;1.35;0.80;;;20.20;37.90;;;;;;5091745;27;20287;-84
2023/05/30 11:17:39;;;;;;;1.50;0.82;;;20.20;37.80;;;;;;5107211;28;20184;-82
2023/05/30 11:20:09;;;;;;;1.13;0.70;;;20.20;37.70;;;;;;5124711;28;20148;-80
2023/05/30 11:22:38;;;;;;;1.17;0.80;;;20.30;37.80;;;;;;5110599;28;20166;-82
2023/05/30 11:25:19;;;;;;;2.08;1.00;;;20.20;37.70;;;;;;5048752;28;20189;-80
2023/05/30 11:28:12;;;;;;;1.27;0.70;;;20.20;37.60;;;;;;5031413;28;20182;-81
2023/05/30 11:30:38;;;;;;;1.23;0.80;;;20.20;37.60;;;;;;5043710;28;20236;-81
2023/05/30 11:33:09;;;;;;;1.35;0.80;;;20.20;37.60;;;;;;5049093;28;20164;-82
2023/05/30 11:35:36;;;;;;;2.05;0.80;;;20.20;37.70;;;;;;5049417;28;20177;-81
2023/05/30 11:38:02;;;;;;;2.42;0.80;;;20.20;37.60;;;;;;5084543;28;20178;-82
2023/05/30 11:40:28;;;;;;;1.50;0.65;;;20.20;37.60;;;;;;5067113;28;20189;-81
2023/05/30 11:42:54;;;;;;;3.00;0.75;;;20.20;37.60;;;;;;5065949;28;20185;-81
2023/05/30 11:45:29;;;;;;;1.70;0.70;;;20.20;37.60;;;;;;5006203;28;20193;-81
2023/05/30 11:48:08;;;;;;;1.88;0.75;;;20.10;37.50;;;;;;5009558;28;20215;-80
2023/05/30 11:50:40;;;;;;;0.93;0.68;;;20.20;37.60;;;;;;5010126;28;20210;-79
2023/05/30 11:53:13;;;;;;;1.52;0.63;;;20.20;37.60;;;;;;4993591;28;20670;-79
2023/05/30 11:55:39;;;;;;;1.27;0.80;;;20.10;37.60;;;;;;5010485;28;20182;-80
2023/05/30 11:58:06;;;;;;;0.95;0.70;;;20.10;37.60;;;;;;5007147;28;20243;-82
2023/05/30 12:00:32;;;;;;;2.70;0.90;;;20.10;37.70;;;;;;5001839;28;20179;-81
2023/05/30 12:02:58;;;;;;;1.52;0.90;;;20.00;37.70;;;;;;5002221;28;20186;-81
2023/05/30 12:05:24;;;;;;;0.90;0.73;;;20.00;37.80;;;;;;4997823;28;20720;-82
2023/05/30 12:07:53;;;;;;;0.80;0.70;;;20.00;37.80;;;;;;5019348;28;20183;-81
2023/05/30 12:10:29;;;;;;;2.15;0.80;;;20.00;37.80;;;;;;5008689;28;20209;-81
2023/05/30 12:12:55;;;;;;;1.48;0.75;;;20.00;37.80;;;;;;5022660;28;20163;-82
2023/05/30 12:15:20;;;;;;;0.80;0.60;;;20.00;37.80;;;;;;5056983;28;20193;-81
2023/05/30 12:17:46;;;;;;;2.10;0.90;;;20.00;37.80;;;;;;5053502;28;20285;-81
2023/05/30 12:20:13;;;;;;;0.90;0.73;;;20.00;37.90;;;;;;5054566;28;20178;-83
2023/05/30 12:22:45;;;;;;;2.05;0.93;;;19.90;37.80;;;;;;5085783;28;20190;-81
2023/05/30 12:25:12;;;;;;;1.15;0.77;;;20.00;37.90;;;;;;5103022;28;20625;-79
2023/05/30 12:27:43;;;;;;;3.53;0.70;;;19.90;37.90;;;;;;5082665;28;20304;-80
2023/05/30 12:30:17;;;;;;;0.85;0.80;;;20.00;38.00;;;;;;5100860;28;20219;-81
2023/05/30 12:32:42;;;;;;;1.27;0.80;;;20.00;38.10;;;;;;5083851;28;20167;-80
2023/05/30 12:35:08;;;;;;;1.85;0.73;;;20.00;38.10;;;;;;5079145;28;20195;-81
2023/05/30 12:37:34;;;;;;;1.13;0.73;;;20.00;38.10;;;;;;5079722;28;20157;-82
2023/05/30 12:40:00;;;;;;;1.02;0.75;;;20.00;38.10;;;;;;5062216;28;20168;-83
2023/05/30 12:42:27;;;;;;;2.78;0.73;;;19.90;38.10;;;;;;5078945;28;20149;-82
2023/05/30 12:44:54;;;;;;;0.77;0.70;;;19.90;38.20;;;;;;5079907;28;20251;-82
2023/05/30 12:47:20;;;;;;;1.30;0.80;;;20.00;38.30;;;;;;5095187;28;20267;-82
2023/05/30 12:49:46;;;;;;;0.75;0.70;;;20.00;38.20;;;;;;5048004;28;20215;-84
2023/05/30 12:52:12;;;;;;;1.15;0.60;;;20.00;38.20;;;;;;5062478;28;20607;-82